sensor_id;sensor_type;location;lat;lon;timestamp;temperature;humidity
7349;DHT22;13010;-33.424;-70.614;2023-04-03T00:23:01;15.10;99.90
7349;DHT22;13010;-33.424;-70.614;2023-04-03T00:25:51;15.10;99.90
7349;DHT22;13010;-33.424;-70.614;2023-04-03T00:28:40;15.00;99.90
7349;DHT22;13010;-33.424;-70.614;2023-04-03T00:31:29;14.80;99.90
7349;DHT22;13010;-33.424;-70.614;2023-04-03T00:34:18;14.60;99.90
7349;DHT22;13010;-33.424;-70.614;2023-04-03T00:37:07;14.60;99.90
7349;DHT22;13010;-33.424;-70.614;2023-04-03T00:39:58;14.40;99.90
7349;DHT22;13010;-33.424;-70.614;2023-04-03T00:42:48;14.20;99.90
7349;DHT22;13010;-33.424;-70.614;2023-04-03T00:45:38;14.30;99.90
7349;DHT22;13010;-33.424;-70.614;2023-04-03T00:48:30;14.30;99.90
7349;DHT22;13010;-33.424;-70.614;2023-04-03T00:51:22;14.30;99.90
7349;DHT22;13010;-33.424;-70.614;2023-04-03T00:54:12;14.40;99.90
7349;DHT22;13010;-33.424;-70.614;2023-04-03T00:57:04;14.70;99.90
7349;DHT22;13010;-33.424;-70.614;2023-04-03T00:59:57;14.70;99.90
7349;DHT22;13010;-33.424;-70.614;2023-04-03T01:02:48;14.70;99.90
7349;DHT22;13010;-33.424;-70.614;2023-04-03T01:05:37;14.70;99.90
7349;DHT22;13010;-33.424;-70.614;2023-04-03T01:08:26;14.60;99.90
7349;DHT22;13010;-33.424;-70.614;2023-04-03T01:11:15;14.50;99.90
7349;DHT22;13010;-33.424;-70.614;2023-04-03T01:14:07;14.50;99.90
7349;DHT22;13010;-33.424;-70.614;2023-04-03T01:16:56;14.40;99.90
7349;DHT22;13010;-33.424;-70.614;2023-04-03T01:19:51;14.30;99.90
7349;DHT22;13010;-33.424;-70.614;2023-04-03T01:22:54;14.30;99.90
7349;DHT22;13010;-33.424;-70.614;2023-04-03T01:25:47;14.40;99.90
7349;DHT22;13010;-33.424;-70.614;2023-04-03T01:28:37;14.30;99.90
7349;DHT22;13010;-33.424;-70.614;2023-04-03T01:31:30;14.30;99.90
7349;DHT22;13010;-33.424;-70.614;2023-04-03T01:34:22;14.20;99.90
7349;DHT22;13010;-33.424;-70.614;2023-04-03T01:37:11;14.30;99.90
7349;DHT22;13010;-33.424;-70.614;2023-04-03T01:40:00;14.30;99.90
7349;DHT22;13010;-33.424;-70.614;2023-04-03T01:42:49;14.30;99.90
7349;DHT22;13010;-33.424;-70.614;2023-04-03T01:45:38;14.30;99.90
7349;DHT22;13010;-33.424;-70.614;2023-04-03T01:48:27;14.50;99.90
7349;DHT22;13010;-33.424;-70.614;2023-04-03T01:51:18;14.50;99.90
7349;DHT22;13010;-33.424;-70.614;2023-04-03T01:54:07;14.50;99.90
7349;DHT22;13010;-33.424;-70.614;2023-04-03T01:56:56;14.40;99.90
7349;DHT22;13010;-33.424;-70.614;2023-04-03T01:59:45;14.20;99.90
7349;DHT22;13010;-33.424;-70.614;2023-04-03T02:02:34;14.10;99.90
7349;DHT22;13010;-33.424;-70.614;2023-04-03T02:05:23;13.90;99.90
7349;DHT22;13010;-33.424;-70.614;2023-04-03T02:08:14;13.80;99.90
7349;DHT22;13010;-33.424;-70.614;2023-04-03T02:11:04;13.70;99.90
7349;DHT22;13010;-33.424;-70.614;2023-04-03T02:13:53;13.50;99.90
7349;DHT22;13010;-33.424;-70.614;2023-04-03T02:16:42;13.40;99.90
7349;DHT22;13010;-33.424;-70.614;2023-04-03T02:19:31;13.30;99.90
7349;DHT22;13010;-33.424;-70.614;2023-04-03T02:22:20;13.30;99.90
7349;DHT22;13010;-33.424;-70.614;2023-04-03T02:25:11;13.20;99.90
7349;DHT22;13010;-33.424;-70.614;2023-04-03T02:28:00;13.20;99.90
7349;DHT22;13010;-33.424;-70.614;2023-04-03T02:30:49;13.20;99.90
7349;DHT22;13010;-33.424;-70.614;2023-04-03T02:33:38;13.30;99.90
7349;DHT22;13010;-33.424;-70.614;2023-04-03T02:36:27;13.20;99.90
7349;DHT22;13010;-33.424;-70.614;2023-04-03T02:39:16;13.10;99.90
7349;DHT22;13010;-33.424;-70.614;2023-04-03T02:42:07;13.00;99.90
7349;DHT22;13010;-33.424;-70.614;2023-04-03T02:44:56;12.90;99.90
7349;DHT22;13010;-33.424;-70.614;2023-04-03T02:47:46;12.90;99.90
7349;DHT22;13010;-33.424;-70.614;2023-04-03T02:50:35;13.10;99.90
7349;DHT22;13010;-33.424;-70.614;2023-04-03T02:53:23;13.10;99.90
7349;DHT22;13010;-33.424;-70.614;2023-04-03T02:56:12;13.10;99.90
7349;DHT22;13010;-33.424;-70.614;2023-04-03T02:59:03;13.10;99.90
7349;DHT22;13010;-33.424;-70.614;2023-04-03T03:01:51;13.10;99.90
7349;DHT22;13010;-33.424;-70.614;2023-04-03T03:04:41;13.00;99.90
7349;DHT22;13010;-33.424;-70.614;2023-04-03T03:07:30;12.70;99.90
7349;DHT22;13010;-33.424;-70.614;2023-04-03T03:10:20;12.50;99.90
7349;DHT22;13010;-33.424;-70.614;2023-04-03T03:13:09;12.50;99.90
7349;DHT22;13010;-33.424;-70.614;2023-04-03T03:16:00;12.50;99.90
7349;DHT22;13010;-33.424;-70.614;2023-04-03T03:18:49;12.70;99.90
7349;DHT22;13010;-33.424;-70.614;2023-04-03T03:21:38;12.90;99.90
7349;DHT22;13010;-33.424;-70.614;2023-04-03T03:24:26;13.00;99.90
7349;DHT22;13010;-33.424;-70.614;2023-04-03T03:27:15;13.00;99.90
7349;DHT22;13010;-33.424;-70.614;2023-04-03T03:30:04;13.00;99.90
7349;DHT22;13010;-33.424;-70.614;2023-04-03T03:32:55;12.90;99.90
7349;DHT22;13010;-33.424;-70.614;2023-04-03T03:35:44;12.80;99.90
7349;DHT22;13010;-33.424;-70.614;2023-04-03T03:38:33;12.90;99.90
7349;DHT22;13010;-33.424;-70.614;2023-04-03T03:41:22;12.90;99.90
7349;DHT22;13010;-33.424;-70.614;2023-04-03T03:44:12;12.90;99.90
7349;DHT22;13010;-33.424;-70.614;2023-04-03T03:47:00;12.80;99.90
7349;DHT22;13010;-33.424;-70.614;2023-04-03T03:49:51;12.70;99.90
7349;DHT22;13010;-33.424;-70.614;2023-04-03T03:52:40;12.60;99.90
7349;DHT22;13010;-33.424;-70.614;2023-04-03T03:55:29;12.40;99.90
7349;DHT22;13010;-33.424;-70.614;2023-04-03T03:58:18;12.30;99.90
7349;DHT22;13010;-33.424;-70.614;2023-04-03T04:01:07;12.20;99.90
7349;DHT22;13010;-33.424;-70.614;2023-04-03T04:03:56;12.10;99.90
7349;DHT22;13010;-33.424;-70.614;2023-04-03T04:06:47;12.00;99.90
7349;DHT22;13010;-33.424;-70.614;2023-04-03T04:09:36;12.00;99.90
7349;DHT22;13010;-33.424;-70.614;2023-04-03T04:12:25;11.80;99.90
7349;DHT22;13010;-33.424;-70.614;2023-04-03T04:15:13;11.70;99.90
7349;DHT22;13010;-33.424;-70.614;2023-04-03T04:18:02;11.70;99.90
7349;DHT22;13010;-33.424;-70.614;2023-04-03T04:20:51;11.80;99.90
7349;DHT22;13010;-33.424;-70.614;2023-04-03T04:23:42;11.80;99.90
7349;DHT22;13010;-33.424;-70.614;2023-04-03T04:26:30;11.70;99.90
7349;DHT22;13010;-33.424;-70.614;2023-04-03T04:29:19;11.60;99.90
7349;DHT22;13010;-33.424;-70.614;2023-04-03T04:32:08;11.50;99.90
7349;DHT22;13010;-33.424;-70.614;2023-04-03T04:34:57;11.40;99.90
7349;DHT22;13010;-33.424;-70.614;2023-04-03T04:37:46;11.20;99.90
7349;DHT22;13010;-33.424;-70.614;2023-04-03T04:40:37;11.20;99.90
7349;DHT22;13010;-33.424;-70.614;2023-04-03T04:43:27;11.20;99.90
7349;DHT22;13010;-33.424;-70.614;2023-04-03T04:46:16;11.30;99.90
7349;DHT22;13010;-33.424;-70.614;2023-04-03T04:49:05;11.30;99.90
7349;DHT22;13010;-33.424;-70.614;2023-04-03T04:51:54;11.20;99.90
7349;DHT22;13010;-33.424;-70.614;2023-04-03T04:54:43;11.10;99.90
7349;DHT22;13010;-33.424;-70.614;2023-04-03T04:57:33;11.00;99.90
7349;DHT22;13010;-33.424;-70.614;2023-04-03T05:00:22;11.00;99.90
7349;DHT22;13010;-33.424;-70.614;2023-04-03T05:03:12;10.90;99.90
7349;DHT22;13010;-33.424;-70.614;2023-04-03T05:06:01;10.90;99.90
7349;DHT22;13010;-33.424;-70.614;2023-04-03T05:08:49;10.90;99.90
7349;DHT22;13010;-33.424;-70.614;2023-04-03T05:11:38;10.90;99.90
7349;DHT22;13010;-33.424;-70.614;2023-04-03T05:14:29;11.10;99.90
7349;DHT22;13010;-33.424;-70.614;2023-04-03T05:17:18;11.20;99.90
7349;DHT22;13010;-33.424;-70.614;2023-04-03T05:20:08;11.30;99.90
7349;DHT22;13010;-33.424;-70.614;2023-04-03T05:22:57;11.30;99.90
7349;DHT22;13010;-33.424;-70.614;2023-04-03T05:25:45;11.40;99.90
7349;DHT22;13010;-33.424;-70.614;2023-04-03T05:28:34;11.40;99.90
7349;DHT22;13010;-33.424;-70.614;2023-04-03T05:31:25;11.40;99.90
7349;DHT22;13010;-33.424;-70.614;2023-04-03T05:34:15;11.40;99.90
7349;DHT22;13010;-33.424;-70.614;2023-04-03T05:37:04;11.40;99.90
7349;DHT22;13010;-33.424;-70.614;2023-04-03T05:39:53;11.30;99.90
7349;DHT22;13010;-33.424;-70.614;2023-04-03T05:42:42;11.40;99.90
7349;DHT22;13010;-33.424;-70.614;2023-04-03T05:45:31;11.40;99.90
7349;DHT22;13010;-33.424;-70.614;2023-04-03T05:48:22;11.50;99.90
7349;DHT22;13010;-33.424;-70.614;2023-04-03T05:51:15;11.40;99.90
7349;DHT22;13010;-33.424;-70.614;2023-04-03T05:54:09;11.40;99.90
7349;DHT22;13010;-33.424;-70.614;2023-04-03T05:56:58;11.30;99.90
7349;DHT22;13010;-33.424;-70.614;2023-04-03T05:59:47;11.20;99.90
7349;DHT22;13010;-33.424;-70.614;2023-04-03T06:02:36;11.30;99.90
7349;DHT22;13010;-33.424;-70.614;2023-04-03T06:05:27;11.30;99.90
7349;DHT22;13010;-33.424;-70.614;2023-04-03T06:08:16;11.30;99.90
7349;DHT22;13010;-33.424;-70.614;2023-04-03T06:11:04;11.30;99.90
7349;DHT22;13010;-33.424;-70.614;2023-04-03T06:13:54;11.30;99.90
7349;DHT22;13010;-33.424;-70.614;2023-04-03T06:16:43;11.20;99.90
7349;DHT22;13010;-33.424;-70.614;2023-04-03T06:19:32;11.10;99.90
7349;DHT22;13010;-33.424;-70.614;2023-04-03T06:22:23;11.00;99.90
7349;DHT22;13010;-33.424;-70.614;2023-04-03T06:25:15;10.90;99.90
7349;DHT22;13010;-33.424;-70.614;2023-04-03T06:28:04;10.90;99.90
7349;DHT22;13010;-33.424;-70.614;2023-04-03T06:30:55;10.80;99.90
7349;DHT22;13010;-33.424;-70.614;2023-04-03T06:33:46;10.70;99.90
7349;DHT22;13010;-33.424;-70.614;2023-04-03T06:36:35;10.60;99.90
7349;DHT22;13010;-33.424;-70.614;2023-04-03T06:39:26;10.60;99.90
7349;DHT22;13010;-33.424;-70.614;2023-04-03T06:42:15;10.50;99.90
7349;DHT22;13010;-33.424;-70.614;2023-04-03T06:45:04;10.50;99.90
7349;DHT22;13010;-33.424;-70.614;2023-04-03T06:47:53;10.50;99.90
7349;DHT22;13010;-33.424;-70.614;2023-04-03T06:50:42;10.30;99.90
7349;DHT22;13010;-33.424;-70.614;2023-04-03T06:53:31;10.20;99.90
7349;DHT22;13010;-33.424;-70.614;2023-04-03T06:56:22;10.20;99.90
7349;DHT22;13010;-33.424;-70.614;2023-04-03T06:59:11;10.20;99.90
7349;DHT22;13010;-33.424;-70.614;2023-04-03T07:02:00;10.20;99.90
7349;DHT22;13010;-33.424;-70.614;2023-04-03T07:04:50;10.20;99.90
7349;DHT22;13010;-33.424;-70.614;2023-04-03T07:07:38;10.20;99.90
7349;DHT22;13010;-33.424;-70.614;2023-04-03T07:10:27;10.00;99.90
7349;DHT22;13010;-33.424;-70.614;2023-04-03T07:13:17;10.00;99.90
7349;DHT22;13010;-33.424;-70.614;2023-04-03T07:16:07;9.80;99.90
7349;DHT22;13010;-33.424;-70.614;2023-04-03T07:18:56;9.80;99.90
7349;DHT22;13010;-33.424;-70.614;2023-04-03T07:21:45;9.70;99.90
7349;DHT22;13010;-33.424;-70.614;2023-04-03T07:24:33;9.70;99.90
7349;DHT22;13010;-33.424;-70.614;2023-04-03T07:27:22;9.70;99.90
7349;DHT22;13010;-33.424;-70.614;2023-04-03T07:30:13;9.60;99.90
7349;DHT22;13010;-33.424;-70.614;2023-04-03T07:33:02;9.60;99.90
7349;DHT22;13010;-33.424;-70.614;2023-04-03T07:35:51;9.50;99.90
7349;DHT22;13010;-33.424;-70.614;2023-04-03T07:38:40;9.50;99.90
7349;DHT22;13010;-33.424;-70.614;2023-04-03T07:41:29;9.60;99.90
7349;DHT22;13010;-33.424;-70.614;2023-04-03T07:44:18;9.70;99.90
7349;DHT22;13010;-33.424;-70.614;2023-04-03T07:47:09;9.60;99.90
7349;DHT22;13010;-33.424;-70.614;2023-04-03T07:49:59;9.60;99.90
7349;DHT22;13010;-33.424;-70.614;2023-04-03T07:52:49;9.70;99.90
7349;DHT22;13010;-33.424;-70.614;2023-04-03T07:55:40;9.70;99.90
7349;DHT22;13010;-33.424;-70.614;2023-04-03T07:58:30;9.70;99.90
7349;DHT22;13010;-33.424;-70.614;2023-04-03T08:01:19;9.60;99.90
7349;DHT22;13010;-33.424;-70.614;2023-04-03T08:04:10;9.50;99.90
7349;DHT22;13010;-33.424;-70.614;2023-04-03T08:06:59;9.50;99.90
7349;DHT22;13010;-33.424;-70.614;2023-04-03T08:09:48;9.50;99.90
7349;DHT22;13010;-33.424;-70.614;2023-04-03T08:12:36;9.40;99.90
7349;DHT22;13010;-33.424;-70.614;2023-04-03T08:15:25;9.40;99.90
7349;DHT22;13010;-33.424;-70.614;2023-04-03T12:51:48;34.40;97.20
7349;DHT22;13010;-33.424;-70.614;2023-04-03T12:54:39;34.80;69.90
7349;DHT22;13010;-33.424;-70.614;2023-04-03T12:57:29;32.80;77.90
7349;DHT22;13010;-33.424;-70.614;2023-04-03T13:00:28;31.90;75.90
7349;DHT22;13010;-33.424;-70.614;2023-04-03T13:03:23;33.70;56.70
7349;DHT22;13010;-33.424;-70.614;2023-04-03T13:06:18;35.60;46.80
7349;DHT22;13010;-33.424;-70.614;2023-04-03T13:09:20;37.70;30.70
7349;DHT22;13010;-33.424;-70.614;2023-04-03T13:12:13;38.90;23.80
7349;DHT22;13010;-33.424;-70.614;2023-04-03T13:15:12;38.80;19.60
7349;DHT22;13010;-33.424;-70.614;2023-04-03T13:18:01;38.50;16.90
7349;DHT22;13010;-33.424;-70.614;2023-04-03T13:20:51;40.30;14.80
7349;DHT22;13010;-33.424;-70.614;2023-04-03T13:23:43;41.80;11.50
7349;DHT22;13010;-33.424;-70.614;2023-04-03T13:26:35;43.20;8.10
7349;DHT22;13010;-33.424;-70.614;2023-04-03T13:29:27;43.80;5.90
7349;DHT22;13010;-33.424;-70.614;2023-04-03T13:32:19;43.70;4.90
7349;DHT22;13010;-33.424;-70.614;2023-04-03T13:35:27;43.00;4.40
7349;DHT22;13010;-33.424;-70.614;2023-04-03T13:38:24;44.40;3.50
7349;DHT22;13010;-33.424;-70.614;2023-04-03T13:41:29;45.10;2.50
7349;DHT22;13010;-33.424;-70.614;2023-04-03T13:44:34;44.10;1.00
7349;DHT22;13010;-33.424;-70.614;2023-04-03T13:47:25;45.00;1.40
7349;DHT22;13010;-33.424;-70.614;2023-04-03T13:50:17;45.50;1.00
7349;DHT22;13010;-33.424;-70.614;2023-04-03T13:53:11;45.50;1.00
7349;DHT22;13010;-33.424;-70.614;2023-04-03T13:56:07;45.60;1.00
7349;DHT22;13010;-33.424;-70.614;2023-04-03T13:59:06;46.20;1.00
7349;DHT22;13010;-33.424;-70.614;2023-04-03T14:02:18;47.70;1.00
7349;DHT22;13010;-33.424;-70.614;2023-04-03T14:05:09;47.70;1.00
7349;DHT22;13010;-33.424;-70.614;2023-04-03T14:07:58;46.60;1.00
7349;DHT22;13010;-33.424;-70.614;2023-04-03T14:10:48;48.30;1.00
7349;DHT22;13010;-33.424;-70.614;2023-04-03T14:13:43;48.20;1.00
7349;DHT22;13010;-33.424;-70.614;2023-04-03T14:16:37;47.40;1.00
7349;DHT22;13010;-33.424;-70.614;2023-04-03T14:19:30;47.50;1.00
7349;DHT22;13010;-33.424;-70.614;2023-04-03T14:22:20;49.70;1.00
7349;DHT22;13010;-33.424;-70.614;2023-04-03T14:25:10;47.80;1.00
7349;DHT22;13010;-33.424;-70.614;2023-04-03T14:27:59;47.90;1.00
7349;DHT22;13010;-33.424;-70.614;2023-04-03T14:30:49;47.60;1.00
7349;DHT22;13010;-33.424;-70.614;2023-04-03T14:33:37;47.70;1.00
7349;DHT22;13010;-33.424;-70.614;2023-04-03T14:36:28;46.70;1.00
7349;DHT22;13010;-33.424;-70.614;2023-04-03T14:39:19;44.50;1.00
7349;DHT22;13010;-33.424;-70.614;2023-04-03T14:42:13;47.00;1.00
7349;DHT22;13010;-33.424;-70.614;2023-04-03T14:45:03;45.80;1.00
7349;DHT22;13010;-33.424;-70.614;2023-04-03T14:47:54;47.40;1.00
7349;DHT22;13010;-33.424;-70.614;2023-04-03T14:50:43;48.70;1.00
7349;DHT22;13010;-33.424;-70.614;2023-04-03T14:53:33;47.90;1.00
7349;DHT22;13010;-33.424;-70.614;2023-04-03T14:56:25;48.00;1.00
7349;DHT22;13010;-33.424;-70.614;2023-04-03T14:59:14;48.30;1.00
7349;DHT22;13010;-33.424;-70.614;2023-04-03T15:02:22;48.80;1.00
7349;DHT22;13010;-33.424;-70.614;2023-04-03T15:05:13;47.80;1.00
7349;DHT22;13010;-33.424;-70.614;2023-04-03T15:08:03;49.70;1.00
7349;DHT22;13010;-33.424;-70.614;2023-04-03T15:10:54;47.10;1.00
7349;DHT22;13010;-33.424;-70.614;2023-04-03T15:13:43;49.10;1.00
7349;DHT22;13010;-33.424;-70.614;2023-04-03T15:16:32;50.80;1.00
7349;DHT22;13010;-33.424;-70.614;2023-04-03T15:19:22;48.50;1.00
7349;DHT22;13010;-33.424;-70.614;2023-04-03T15:22:18;48.00;1.00
7349;DHT22;13010;-33.424;-70.614;2023-04-03T15:25:07;48.90;1.00
7349;DHT22;13010;-33.424;-70.614;2023-04-03T15:27:59;47.10;1.00
7349;DHT22;13010;-33.424;-70.614;2023-04-03T15:30:48;49.70;1.00
7349;DHT22;13010;-33.424;-70.614;2023-04-03T15:33:37;48.50;1.00
7349;DHT22;13010;-33.424;-70.614;2023-04-03T15:36:26;47.70;1.00
7349;DHT22;13010;-33.424;-70.614;2023-04-03T15:39:15;49.90;1.00
7349;DHT22;13010;-33.424;-70.614;2023-04-03T15:42:04;50.30;1.00
7349;DHT22;13010;-33.424;-70.614;2023-04-03T15:44:55;49.80;1.00
7349;DHT22;13010;-33.424;-70.614;2023-04-03T15:47:44;50.50;1.00
7349;DHT22;13010;-33.424;-70.614;2023-04-03T15:50:35;49.70;1.00
7349;DHT22;13010;-33.424;-70.614;2023-04-03T15:53:24;50.80;1.00
7349;DHT22;13010;-33.424;-70.614;2023-04-03T15:56:14;50.50;1.00
7349;DHT22;13010;-33.424;-70.614;2023-04-03T15:59:03;49.80;1.00
7349;DHT22;13010;-33.424;-70.614;2023-04-03T16:01:54;49.70;1.00
7349;DHT22;13010;-33.424;-70.614;2023-04-03T16:04:43;50.60;1.00
7349;DHT22;13010;-33.424;-70.614;2023-04-03T16:07:32;48.80;1.00
7349;DHT22;13010;-33.424;-70.614;2023-04-03T16:10:21;49.30;1.00
7349;DHT22;13010;-33.424;-70.614;2023-04-03T16:13:10;49.70;1.00
7349;DHT22;13010;-33.424;-70.614;2023-04-03T16:15:58;49.30;1.00
7349;DHT22;13010;-33.424;-70.614;2023-04-03T16:18:49;46.40;1.00
7349;DHT22;13010;-33.424;-70.614;2023-04-03T16:21:39;48.00;1.00
7349;DHT22;13010;-33.424;-70.614;2023-04-03T16:24:28;47.90;1.00
7349;DHT22;13010;-33.424;-70.614;2023-04-03T16:27:18;48.30;1.00
7349;DHT22;13010;-33.424;-70.614;2023-04-03T16:30:08;48.20;1.00
7349;DHT22;13010;-33.424;-70.614;2023-04-03T16:32:58;48.80;1.00
7349;DHT22;13010;-33.424;-70.614;2023-04-03T16:35:48;46.20;1.00
7349;DHT22;13010;-33.424;-70.614;2023-04-03T16:38:38;44.20;1.00
7349;DHT22;13010;-33.424;-70.614;2023-04-03T16:41:27;41.90;1.00
7349;DHT22;13010;-33.424;-70.614;2023-04-03T16:44:15;39.40;1.00
7349;DHT22;13010;-33.424;-70.614;2023-04-03T16:47:05;38.20;1.00
7349;DHT22;13010;-33.424;-70.614;2023-04-03T16:49:56;37.20;1.00
7349;DHT22;13010;-33.424;-70.614;2023-04-03T16:52:48;36.40;2.10
7349;DHT22;13010;-33.424;-70.614;2023-04-03T16:55:37;38.90;1.30
7349;DHT22;13010;-33.424;-70.614;2023-04-03T16:58:27;37.50;1.00
7349;DHT22;13010;-33.424;-70.614;2023-04-03T17:01:17;32.50;6.00
7349;DHT22;13010;-33.424;-70.614;2023-04-03T17:04:07;29.40;16.10
7349;DHT22;13010;-33.424;-70.614;2023-04-03T17:07:05;28.40;34.20
7349;DHT22;13010;-33.424;-70.614;2023-04-03T17:09:57;27.80;44.50
7349;DHT22;13010;-33.424;-70.614;2023-04-03T17:12:48;26.60;66.50
7349;DHT22;13010;-33.424;-70.614;2023-04-03T17:15:38;26.20;91.10
7349;DHT22;13010;-33.424;-70.614;2023-04-03T17:18:30;25.90;93.70
7349;DHT22;13010;-33.424;-70.614;2023-04-03T17:21:19;27.30;93.50
7349;DHT22;13010;-33.424;-70.614;2023-04-03T17:24:10;28.70;77.00
7349;DHT22;13010;-33.424;-70.614;2023-04-03T17:27:02;32.60;46.20
7349;DHT22;13010;-33.424;-70.614;2023-04-03T17:29:51;33.70;31.10
7349;DHT22;13010;-33.424;-70.614;2023-04-03T17:32:40;32.80;29.60
7349;DHT22;13010;-33.424;-70.614;2023-04-03T17:35:30;32.30;29.90
7349;DHT22;13010;-33.424;-70.614;2023-04-03T17:38:21;30.80;32.60
7349;DHT22;13010;-33.424;-70.614;2023-04-03T17:41:10;28.80;47.20
7349;DHT22;13010;-33.424;-70.614;2023-04-03T17:44:05;27.80;52.20
7349;DHT22;13010;-33.424;-70.614;2023-04-03T17:46:54;27.50;66.70
7349;DHT22;13010;-33.424;-70.614;2023-04-03T17:49:43;28.90;55.60
7349;DHT22;13010;-33.424;-70.614;2023-04-03T17:52:32;28.80;53.30
7349;DHT22;13010;-33.424;-70.614;2023-04-03T17:55:20;30.70;45.60
7349;DHT22;13010;-33.424;-70.614;2023-04-03T17:58:17;33.10;34.20
7349;DHT22;13010;-33.424;-70.614;2023-04-03T18:01:11;35.00;27.30
7349;DHT22;13010;-33.424;-70.614;2023-04-03T18:04:02;36.60;20.80
7349;DHT22;13010;-33.424;-70.614;2023-04-03T18:06:52;37.00;17.00
7349;DHT22;13010;-33.424;-70.614;2023-04-03T18:09:43;36.10;15.90
7349;DHT22;13010;-33.424;-70.614;2023-04-03T18:12:33;35.80;16.00
7349;DHT22;13010;-33.424;-70.614;2023-04-03T18:15:24;33.90;17.30
7349;DHT22;13010;-33.424;-70.614;2023-04-03T18:18:15;33.70;19.50
7349;DHT22;13010;-33.424;-70.614;2023-04-03T18:21:04;34.10;19.60
7349;DHT22;13010;-33.424;-70.614;2023-04-03T18:23:55;34.70;19.40
7349;DHT22;13010;-33.424;-70.614;2023-04-03T18:26:49;32.80;19.20
7349;DHT22;13010;-33.424;-70.614;2023-04-03T18:29:41;32.70;19.60
7349;DHT22;13010;-33.424;-70.614;2023-04-03T18:32:31;30.50;25.30
7349;DHT22;13010;-33.424;-70.614;2023-04-03T18:35:22;30.40;26.50
7349;DHT22;13010;-33.424;-70.614;2023-04-03T18:38:11;29.00;31.80
7349;DHT22;13010;-33.424;-70.614;2023-04-03T18:41:00;28.70;39.80
7349;DHT22;13010;-33.424;-70.614;2023-04-03T18:43:51;28.00;40.00
7349;DHT22;13010;-33.424;-70.614;2023-04-03T18:46:40;28.00;42.70
7349;DHT22;13010;-33.424;-70.614;2023-04-03T18:49:30;27.70;43.80
7349;DHT22;13010;-33.424;-70.614;2023-04-03T18:52:21;27.50;45.90
7349;DHT22;13010;-33.424;-70.614;2023-04-03T18:55:11;27.30;48.10
7349;DHT22;13010;-33.424;-70.614;2023-04-03T18:58:01;26.70;53.80
7349;DHT22;13010;-33.424;-70.614;2023-04-03T19:00:51;26.80;55.10
7349;DHT22;13010;-33.424;-70.614;2023-04-03T19:03:40;26.60;54.50
7349;DHT22;13010;-33.424;-70.614;2023-04-03T19:06:29;26.50;62.30
7349;DHT22;13010;-33.424;-70.614;2023-04-03T19:09:20;26.50;65.60
7349;DHT22;13010;-33.424;-70.614;2023-04-03T19:12:09;26.30;56.90
7349;DHT22;13010;-33.424;-70.614;2023-04-03T19:14:58;26.10;62.80
7349;DHT22;13010;-33.424;-70.614;2023-04-03T19:17:47;26.20;59.50
7349;DHT22;13010;-33.424;-70.614;2023-04-03T19:20:35;26.30;58.50
7349;DHT22;13010;-33.424;-70.614;2023-04-03T19:23:25;26.60;58.80
7349;DHT22;13010;-33.424;-70.614;2023-04-03T19:26:15;26.80;55.60
7349;DHT22;13010;-33.424;-70.614;2023-04-03T19:29:04;26.80;55.70
7349;DHT22;13010;-33.424;-70.614;2023-04-03T19:31:54;26.80;55.30
7349;DHT22;13010;-33.424;-70.614;2023-04-03T19:34:44;26.90;56.00
7349;DHT22;13010;-33.424;-70.614;2023-04-03T19:37:33;27.00;55.30
7349;DHT22;13010;-33.424;-70.614;2023-04-03T19:40:22;27.50;50.80
7349;DHT22;13010;-33.424;-70.614;2023-04-03T19:43:16;27.40;49.60
7349;DHT22;13010;-33.424;-70.614;2023-04-03T19:46:06;26.90;52.50
7349;DHT22;13010;-33.424;-70.614;2023-04-03T19:48:55;26.40;52.80
7349;DHT22;13010;-33.424;-70.614;2023-04-03T19:51:44;26.00;57.50
7349;DHT22;13010;-33.424;-70.614;2023-04-03T19:54:35;26.00;58.70
7349;DHT22;13010;-33.424;-70.614;2023-04-03T19:57:24;25.80;63.10
7349;DHT22;13010;-33.424;-70.614;2023-04-03T20:00:17;25.70;63.60
7349;DHT22;13010;-33.424;-70.614;2023-04-03T20:03:06;25.70;64.10
7349;DHT22;13010;-33.424;-70.614;2023-04-03T20:05:59;25.50;65.10
7349;DHT22;13010;-33.424;-70.614;2023-04-03T20:08:47;25.50;67.20
7349;DHT22;13010;-33.424;-70.614;2023-04-03T20:11:36;25.50;64.70
7349;DHT22;13010;-33.424;-70.614;2023-04-03T20:14:25;25.50;68.20
7349;DHT22;13010;-33.424;-70.614;2023-04-03T20:17:18;25.50;64.10
7349;DHT22;13010;-33.424;-70.614;2023-04-03T20:20:07;25.40;65.30
7349;DHT22;13010;-33.424;-70.614;2023-04-03T20:22:56;25.40;68.90
7349;DHT22;13010;-33.424;-70.614;2023-04-03T20:25:46;25.30;66.90
7349;DHT22;13010;-33.424;-70.614;2023-04-03T20:28:35;25.20;68.00
7349;DHT22;13010;-33.424;-70.614;2023-04-03T20:31:26;25.00;66.30
7349;DHT22;13010;-33.424;-70.614;2023-04-03T20:34:17;25.00;72.20
7349;DHT22;13010;-33.424;-70.614;2023-04-03T20:37:06;25.00;76.20
7349;DHT22;13010;-33.424;-70.614;2023-04-03T20:39:55;25.00;68.30
7349;DHT22;13010;-33.424;-70.614;2023-04-03T20:42:44;25.00;69.90
7349;DHT22;13010;-33.424;-70.614;2023-04-03T20:45:34;25.00;70.70
7349;DHT22;13010;-33.424;-70.614;2023-04-03T20:48:23;24.80;67.60
7349;DHT22;13010;-33.424;-70.614;2023-04-03T20:51:15;24.50;69.60
7349;DHT22;13010;-33.424;-70.614;2023-04-03T20:54:05;24.30;69.40
7349;DHT22;13010;-33.424;-70.614;2023-04-03T20:56:54;24.20;75.30
7349;DHT22;13010;-33.424;-70.614;2023-04-03T20:59:44;24.10;78.30
7349;DHT22;13010;-33.424;-70.614;2023-04-03T21:02:33;24.00;82.30
7349;DHT22;13010;-33.424;-70.614;2023-04-03T21:05:22;24.00;78.30
7349;DHT22;13010;-33.424;-70.614;2023-04-03T21:22:01;23.50;87.50
7349;DHT22;13010;-33.424;-70.614;2023-04-03T21:24:53;23.40;88.00
7349;DHT22;13010;-33.424;-70.614;2023-04-03T21:27:42;23.40;88.90
7349;DHT22;13010;-33.424;-70.614;2023-04-03T21:30:31;23.20;91.20
7349;DHT22;13010;-33.424;-70.614;2023-04-03T21:33:20;23.10;90.60
7349;DHT22;13010;-33.424;-70.614;2023-04-03T21:36:10;23.20;90.20
7349;DHT22;13010;-33.424;-70.614;2023-04-03T21:39:00;23.10;88.70
7349;DHT22;13010;-33.424;-70.614;2023-04-03T21:41:50;22.90;90.10
7349;DHT22;13010;-33.424;-70.614;2023-04-03T21:44:39;22.80;90.20
7349;DHT22;13010;-33.424;-70.614;2023-04-03T21:47:27;22.70;91.10
7349;DHT22;13010;-33.424;-70.614;2023-04-03T21:50:16;22.70;90.50
7349;DHT22;13010;-33.424;-70.614;2023-04-03T21:53:06;22.50;91.20
7349;DHT22;13010;-33.424;-70.614;2023-04-03T21:55:59;22.40;90.70
7349;DHT22;13010;-33.424;-70.614;2023-04-03T21:58:48;22.30;92.50
7349;DHT22;13010;-33.424;-70.614;2023-04-03T22:01:36;22.10;95.20
7349;DHT22;13010;-33.424;-70.614;2023-04-03T22:04:26;21.80;95.10
7349;DHT22;13010;-33.424;-70.614;2023-04-03T22:07:15;21.50;97.30
7349;DHT22;13010;-33.424;-70.614;2023-04-03T22:10:07;21.40;98.60
7349;DHT22;13010;-33.424;-70.614;2023-04-03T22:12:56;21.20;99.90
7349;DHT22;13010;-33.424;-70.614;2023-04-03T22:15:47;21.00;99.90
7349;DHT22;13010;-33.424;-70.614;2023-04-03T22:18:36;20.80;99.90
7349;DHT22;13010;-33.424;-70.614;2023-04-03T22:21:26;20.60;99.90
7349;DHT22;13010;-33.424;-70.614;2023-04-03T22:24:14;20.50;99.90
7349;DHT22;13010;-33.424;-70.614;2023-04-03T22:27:07;20.30;99.90
7349;DHT22;13010;-33.424;-70.614;2023-04-03T22:29:58;20.10;99.90
7349;DHT22;13010;-33.424;-70.614;2023-04-03T22:32:47;19.80;99.90
7349;DHT22;13010;-33.424;-70.614;2023-04-03T22:35:36;19.40;99.90